sensor_id;sensor_type;location;lat;lon;timestamp;temperature;humidity
15969;DHT22;8085;53.472;9.794;2023-06-26T00:01:11;20.10;99.90
15969;DHT22;8085;53.472;9.794;2023-06-26T00:03:38;20.00;99.90
15969;DHT22;8085;53.472;9.794;2023-06-26T00:06:05;20.00;99.90
15969;DHT22;8085;53.472;9.794;2023-06-26T00:08:32;19.90;99.90
15969;DHT22;8085;53.472;9.794;2023-06-26T00:10:59;19.80;99.90
15969;DHT22;8085;53.472;9.794;2023-06-26T00:13:28;19.70;99.90
15969;DHT22;8085;53.472;9.794;2023-06-26T00:15:55;19.60;99.90
15969;DHT22;8085;53.472;9.794;2023-06-26T00:18:22;19.60;99.90
15969;DHT22;8085;53.472;9.794;2023-06-26T00:20:49;19.60;99.90
15969;DHT22;8085;53.472;9.794;2023-06-26T00:23:17;19.50;99.90
15969;DHT22;8085;53.472;9.794;2023-06-26T00:25:44;19.50;99.90
15969;DHT22;8085;53.472;9.794;2023-06-26T00:28:11;19.40;99.90
15969;DHT22;8085;53.472;9.794;2023-06-26T00:30:40;19.40;99.90
15969;DHT22;8085;53.472;9.794;2023-06-26T00:33:10;19.30;99.90
15969;DHT22;8085;53.472;9.794;2023-06-26T00:35:37;19.30;99.90
15969;DHT22;8085;53.472;9.794;2023-06-26T00:38:04;19.20;99.90
15969;DHT22;8085;53.472;9.794;2023-06-26T00:40:31;19.20;99.90
15969;DHT22;8085;53.472;9.794;2023-06-26T00:42:58;19.10;99.90
15969;DHT22;8085;53.472;9.794;2023-06-26T00:45:25;19.10;99.90
15969;DHT22;8085;53.472;9.794;2023-06-26T00:47:54;19.10;99.90
15969;DHT22;8085;53.472;9.794;2023-06-26T00:50:22;19.00;99.90
15969;DHT22;8085;53.472;9.794;2023-06-26T00:52:49;19.00;99.90
15969;DHT22;8085;53.472;9.794;2023-06-26T05:49:31;23.40;99.90
15969;DHT22;8085;53.472;9.794;2023-06-26T05:52:04;23.20;99.90
15969;DHT22;8085;53.472;9.794;2023-06-26T05:58:30;23.10;99.90
15969;DHT22;8085;53.472;9.794;2023-06-26T06:57:11;30.70;99.90
15969;DHT22;8085;53.472;9.794;2023-06-26T06:59:39;31.20;99.90
15969;DHT22;8085;53.472;9.794;2023-06-26T07:02:06;31.60;99.90
15969;DHT22;8085;53.472;9.794;2023-06-26T07:04:33;31.70;99.90
15969;DHT22;8085;53.472;9.794;2023-06-26T07:07:01;31.50;99.90
15969;DHT22;8085;53.472;9.794;2023-06-26T07:09:29;31.50;99.90
15969;DHT22;8085;53.472;9.794;2023-06-26T07:11:56;32.00;99.90
15969;DHT22;8085;53.472;9.794;2023-06-26T07:14:25;32.40;99.90
15969;DHT22;8085;53.472;9.794;2023-06-26T07:16:52;32.40;99.90
15969;DHT22;8085;53.472;9.794;2023-06-26T07:19:19;32.00;99.90
15969;DHT22;8085;53.472;9.794;2023-06-26T07:21:46;32.00;99.90
15969;DHT22;8085;53.472;9.794;2023-06-26T07:24:13;32.00;99.90
15969;DHT22;8085;53.472;9.794;2023-06-26T07:26:40;32.20;99.90
15969;DHT22;8085;53.472;9.794;2023-06-26T07:29:08;32.90;99.90
15969;DHT22;8085;53.472;9.794;2023-06-26T07:31:36;32.90;99.90
15969;DHT22;8085;53.472;9.794;2023-06-26T07:34:04;33.40;99.90
15969;DHT22;8085;53.472;9.794;2023-06-26T07:36:32;33.50;99.90
15969;DHT22;8085;53.472;9.794;2023-06-26T07:39:02;33.50;99.90
15969;DHT22;8085;53.472;9.794;2023-06-26T07:41:29;33.10;99.90
15969;DHT22;8085;53.472;9.794;2023-06-26T07:43:57;33.00;99.90
15969;DHT22;8085;53.472;9.794;2023-06-26T07:46:26;33.30;99.90
15969;DHT22;8085;53.472;9.794;2023-06-26T07:48:54;33.10;99.90
15969;DHT22;8085;53.472;9.794;2023-06-26T07:51:21;33.10;99.90
15969;DHT22;8085;53.472;9.794;2023-06-26T07:53:49;33.10;99.90
15969;DHT22;8085;53.472;9.794;2023-06-26T07:56:18;33.20;99.90
15969;DHT22;8085;53.472;9.794;2023-06-26T07:58:46;32.80;99.90
15969;DHT22;8085;53.472;9.794;2023-06-26T08:01:13;32.70;99.90
15969;DHT22;8085;53.472;9.794;2023-06-26T08:03:40;31.80;99.90
15969;DHT22;8085;53.472;9.794;2023-06-26T08:06:09;31.60;99.90
15969;DHT22;8085;53.472;9.794;2023-06-26T08:08:36;31.30;99.90
15969;DHT22;8085;53.472;9.794;2023-06-26T08:11:03;31.40;99.90
15969;DHT22;8085;53.472;9.794;2023-06-26T08:13:30;31.50;99.90
15969;DHT22;8085;53.472;9.794;2023-06-26T08:15:58;32.10;99.90
15969;DHT22;8085;53.472;9.794;2023-06-26T08:18:25;32.50;99.90
15969;DHT22;8085;53.472;9.794;2023-06-26T08:20:57;32.50;99.90
15969;DHT22;8085;53.472;9.794;2023-06-26T08:23:26;32.70;99.90
15969;DHT22;8085;53.472;9.794;2023-06-26T08:25:53;33.20;99.90
15969;DHT22;8085;53.472;9.794;2023-06-26T08:28:20;33.50;99.90
15969;DHT22;8085;53.472;9.794;2023-06-26T08:30:47;33.30;99.90
15969;DHT22;8085;53.472;9.794;2023-06-26T08:33:14;32.90;99.90
15969;DHT22;8085;53.472;9.794;2023-06-26T08:35:44;32.40;99.90
15969;DHT22;8085;53.472;9.794;2023-06-26T08:38:11;31.90;99.90
15969;DHT22;8085;53.472;9.794;2023-06-26T08:40:40;31.50;99.90
15969;DHT22;8085;53.472;9.794;2023-06-26T08:43:10;31.20;99.90
15969;DHT22;8085;53.472;9.794;2023-06-26T08:45:37;30.90;99.90
15969;DHT22;8085;53.472;9.794;2023-06-26T08:48:07;31.50;99.90
15969;DHT22;8085;53.472;9.794;2023-06-26T08:50:35;31.90;99.90
15969;DHT22;8085;53.472;9.794;2023-06-26T08:53:14;32.10;99.90
15969;DHT22;8085;53.472;9.794;2023-06-26T08:55:49;32.30;99.90
15969;DHT22;8085;53.472;9.794;2023-06-26T08:58:17;33.00;99.90
15969;DHT22;8085;53.472;9.794;2023-06-26T09:00:47;32.90;99.90
15969;DHT22;8085;53.472;9.794;2023-06-26T09:03:15;33.00;99.90
15969;DHT22;8085;53.472;9.794;2023-06-26T09:05:43;33.60;99.90
15969;DHT22;8085;53.472;9.794;2023-06-26T09:08:22;33.90;99.90
15969;DHT22;8085;53.472;9.794;2023-06-26T09:10:59;34.50;99.90
15969;DHT22;8085;53.472;9.794;2023-06-26T09:13:31;34.10;99.90
15969;DHT22;8085;53.472;9.794;2023-06-26T09:16:14;33.80;99.90
15969;DHT22;8085;53.472;9.794;2023-06-26T09:27:29;29.10;99.90
15969;DHT22;8085;53.472;9.794;2023-06-26T09:30:21;28.30;99.90
15969;DHT22;8085;53.472;9.794;2023-06-26T09:33:15;28.40;99.90
15969;DHT22;8085;53.472;9.794;2023-06-26T09:35:46;29.10;99.90
15969;DHT22;8085;53.472;9.794;2023-06-26T09:38:35;28.90;99.90
15969;DHT22;8085;53.472;9.794;2023-06-26T09:41:06;27.70;99.90
15969;DHT22;8085;53.472;9.794;2023-06-26T09:43:35;26.70;99.90
15969;DHT22;8085;53.472;9.794;2023-06-26T10:11:36;24.50;99.90
15969;DHT22;8085;53.472;9.794;2023-06-26T10:14:34;21.80;99.90
15969;DHT22;8085;53.472;9.794;2023-06-26T10:17:18;21.00;99.90
15969;DHT22;8085;53.472;9.794;2023-06-26T10:20:01;20.40;99.90
15969;DHT22;8085;53.472;9.794;2023-06-26T10:22:46;20.00;99.90
15969;DHT22;8085;53.472;9.794;2023-06-26T10:25:38;19.60;99.90
15969;DHT22;8085;53.472;9.794;2023-06-26T10:28:10;19.50;99.90
15969;DHT22;8085;53.472;9.794;2023-06-26T10:30:41;19.50;99.90
15969;DHT22;8085;53.472;9.794;2023-06-26T10:33:12;19.70;99.90
15969;DHT22;8085;53.472;9.794;2023-06-26T10:35:53;19.90;99.90
15969;DHT22;8085;53.472;9.794;2023-06-26T10:38:50;19.90;99.90
15969;DHT22;8085;53.472;9.794;2023-06-26T10:41:23;20.00;99.90
15969;DHT22;8085;53.472;9.794;2023-06-26T10:44:15;20.00;99.90
15969;DHT22;8085;53.472;9.794;2023-06-26T10:46:53;20.10;99.90
15969;DHT22;8085;53.472;9.794;2023-06-26T10:49:27;20.30;99.90
15969;DHT22;8085;53.472;9.794;2023-06-26T10:51:55;20.30;99.90
15969;DHT22;8085;53.472;9.794;2023-06-26T10:54:35;20.50;99.90
15969;DHT22;8085;53.472;9.794;2023-06-26T10:57:02;20.90;99.90
15969;DHT22;8085;53.472;9.794;2023-06-26T10:59:39;21.60;99.90
15969;DHT22;8085;53.472;9.794;2023-06-26T11:02:07;22.00;99.90
15969;DHT22;8085;53.472;9.794;2023-06-26T11:04:43;21.70;99.90
15969;DHT22;8085;53.472;9.794;2023-06-26T11:07:19;21.40;99.90
15969;DHT22;8085;53.472;9.794;2023-06-26T11:09:54;21.20;99.90
15969;DHT22;8085;53.472;9.794;2023-06-26T11:12:35;21.60;99.90
15969;DHT22;8085;53.472;9.794;2023-06-26T11:15:07;21.30;99.90
15969;DHT22;8085;53.472;9.794;2023-06-26T11:17:36;21.10;99.90
15969;DHT22;8085;53.472;9.794;2023-06-26T11:20:10;20.70;99.90
15969;DHT22;8085;53.472;9.794;2023-06-26T11:22:39;20.50;99.90
15969;DHT22;8085;53.472;9.794;2023-06-26T11:25:07;20.50;99.90
15969;DHT22;8085;53.472;9.794;2023-06-26T11:27:41;20.90;99.90
15969;DHT22;8085;53.472;9.794;2023-06-26T11:30:22;21.20;99.90
15969;DHT22;8085;53.472;9.794;2023-06-26T11:32:50;21.20;99.90
15969;DHT22;8085;53.472;9.794;2023-06-26T11:35:22;21.10;99.90
15969;DHT22;8085;53.472;9.794;2023-06-26T11:37:55;21.30;99.90
15969;DHT22;8085;53.472;9.794;2023-06-26T11:40:28;21.20;99.90
15969;DHT22;8085;53.472;9.794;2023-06-26T11:42:58;21.80;99.90
15969;DHT22;8085;53.472;9.794;2023-06-26T11:45:30;23.20;24.90
15969;DHT22;8085;53.472;9.794;2023-06-26T11:48:07;23.60;1.00
15969;DHT22;8085;53.472;9.794;2023-06-26T11:50:37;22.90;1.00
15969;DHT22;8085;53.472;9.794;2023-06-26T11:53:04;22.20;46.10
15969;DHT22;8085;53.472;9.794;2023-06-26T11:55:41;21.50;49.90
15969;DHT22;8085;53.472;9.794;2023-06-26T11:58:09;21.10;70.40
15969;DHT22;8085;53.472;9.794;2023-06-26T12:00:42;21.00;77.20
15969;DHT22;8085;53.472;9.794;2023-06-26T12:03:10;21.60;76.80
15969;DHT22;8085;53.472;9.794;2023-06-26T12:05:43;21.90;50.90
15969;DHT22;8085;53.472;9.794;2023-06-26T12:08:11;22.40;35.50
15969;DHT22;8085;53.472;9.794;2023-06-26T12:10:41;22.70;1.00
15969;DHT22;8085;53.472;9.794;2023-06-26T12:13:18;23.00;1.00
15969;DHT22;8085;53.472;9.794;2023-06-26T12:15:55;23.00;1.00
15969;DHT22;8085;53.472;9.794;2023-06-26T12:18:34;22.90;1.00
15969;DHT22;8085;53.472;9.794;2023-06-26T12:21:05;22.90;1.00
15969;DHT22;8085;53.472;9.794;2023-06-26T12:23:32;23.00;1.00
15969;DHT22;8085;53.472;9.794;2023-06-26T12:26:17;23.20;1.00
15969;DHT22;8085;53.472;9.794;2023-06-26T12:28:45;23.00;1.00
15969;DHT22;8085;53.472;9.794;2023-06-26T12:31:21;23.10;1.00
15969;DHT22;8085;53.472;9.794;2023-06-26T12:33:49;23.00;1.00
15969;DHT22;8085;53.472;9.794;2023-06-26T12:36:21;23.20;1.00
15969;DHT22;8085;53.472;9.794;2023-06-26T12:38:52;23.40;1.00
15969;DHT22;8085;53.472;9.794;2023-06-26T12:41:28;23.70;1.00
15969;DHT22;8085;53.472;9.794;2023-06-26T12:43:56;23.50;1.00
15969;DHT22;8085;53.472;9.794;2023-06-26T12:46:34;23.30;1.00
15969;DHT22;8085;53.472;9.794;2023-06-26T12:49:02;23.40;1.00
15969;DHT22;8085;53.472;9.794;2023-06-26T12:51:29;23.30;1.00
15969;DHT22;8085;53.472;9.794;2023-06-26T12:53:56;23.00;1.00
15969;DHT22;8085;53.472;9.794;2023-06-26T12:56:24;22.90;1.00
15969;DHT22;8085;53.472;9.794;2023-06-26T12:58:51;23.00;1.00
15969;DHT22;8085;53.472;9.794;2023-06-26T13:01:18;23.30;1.00
15969;DHT22;8085;53.472;9.794;2023-06-26T13:03:51;23.10;99.90
15969;DHT22;8085;53.472;9.794;2023-06-26T13:06:19;23.10;99.90
15969;DHT22;8085;53.472;9.794;2023-06-26T13:08:46;23.10;1.00
15969;DHT22;8085;53.472;9.794;2023-06-26T13:11:17;23.20;1.00
15969;DHT22;8085;53.472;9.794;2023-06-26T13:13:45;23.40;1.00
15969;DHT22;8085;53.472;9.794;2023-06-26T13:16:16;23.50;1.00
15969;DHT22;8085;53.472;9.794;2023-06-26T13:18:44;23.40;99.90
15969;DHT22;8085;53.472;9.794;2023-06-26T13:21:14;23.30;1.00
15969;DHT22;8085;53.472;9.794;2023-06-26T13:23:42;23.30;1.00
15969;DHT22;8085;53.472;9.794;2023-06-26T13:26:09;23.30;99.90
15969;DHT22;8085;53.472;9.794;2023-06-26T13:28:37;23.10;99.90
15969;DHT22;8085;53.472;9.794;2023-06-26T13:31:05;23.00;99.90
15969;DHT22;8085;53.472;9.794;2023-06-26T13:33:32;23.00;1.00
15969;DHT22;8085;53.472;9.794;2023-06-26T13:35:59;23.00;99.90
15969;DHT22;8085;53.472;9.794;2023-06-26T13:38:33;23.00;99.90
15969;DHT22;8085;53.472;9.794;2023-06-26T13:41:00;23.00;99.90
15969;DHT22;8085;53.472;9.794;2023-06-26T13:43:28;23.00;1.00
15969;DHT22;8085;53.472;9.794;2023-06-26T13:45:56;23.00;1.00
15969;DHT22;8085;53.472;9.794;2023-06-26T13:48:23;23.00;99.90
15969;DHT22;8085;53.472;9.794;2023-06-26T13:50:52;23.00;96.90
15969;DHT22;8085;53.472;9.794;2023-06-26T13:53:25;23.00;99.90
15969;DHT22;8085;53.472;9.794;2023-06-26T13:55:55;22.90;1.00
15969;DHT22;8085;53.472;9.794;2023-06-26T13:58:23;23.10;1.00
15969;DHT22;8085;53.472;9.794;2023-06-26T14:00:54;23.40;99.90
15969;DHT22;8085;53.472;9.794;2023-06-26T14:03:21;23.40;99.90
15969;DHT22;8085;53.472;9.794;2023-06-26T14:05:52;23.30;99.90
15969;DHT22;8085;53.472;9.794;2023-06-26T14:08:22;23.30;1.00
15969;DHT22;8085;53.472;9.794;2023-06-26T14:11:20;23.00;1.00
15969;DHT22;8085;53.472;9.794;2023-06-26T14:13:53;22.70;1.00
15969;DHT22;8085;53.472;9.794;2023-06-26T14:16:25;22.70;99.90
15969;DHT22;8085;53.472;9.794;2023-06-26T14:18:57;22.60;99.90
15969;DHT22;8085;53.472;9.794;2023-06-26T14:21:43;22.60;1.00
15969;DHT22;8085;53.472;9.794;2023-06-26T14:24:20;22.80;1.00
15969;DHT22;8085;53.472;9.794;2023-06-26T14:26:49;23.00;99.90
15969;DHT22;8085;53.472;9.794;2023-06-26T14:29:19;23.10;1.00
15969;DHT22;8085;53.472;9.794;2023-06-26T14:31:47;23.40;99.90
15969;DHT22;8085;53.472;9.794;2023-06-26T14:34:15;23.40;99.90
15969;DHT22;8085;53.472;9.794;2023-06-26T14:36:44;23.10;1.00
15969;DHT22;8085;53.472;9.794;2023-06-26T14:39:11;22.90;48.30
15969;DHT22;8085;53.472;9.794;2023-06-26T14:41:41;22.40;1.00
15969;DHT22;8085;53.472;9.794;2023-06-26T14:44:14;22.30;1.00
15969;DHT22;8085;53.472;9.794;2023-06-26T14:46:46;22.70;99.90
15969;DHT22;8085;53.472;9.794;2023-06-26T14:49:14;22.70;1.00
15969;DHT22;8085;53.472;9.794;2023-06-26T14:51:43;22.50;1.00
15969;DHT22;8085;53.472;9.794;2023-06-26T14:54:25;22.30;99.90
15969;DHT22;8085;53.472;9.794;2023-06-26T14:56:58;22.40;99.90
15969;DHT22;8085;53.472;9.794;2023-06-26T14:59:29;22.20;99.90
15969;DHT22;8085;53.472;9.794;2023-06-26T15:02:38;22.10;99.90
15969;DHT22;8085;53.472;9.794;2023-06-26T15:05:19;22.10;1.00
15969;DHT22;8085;53.472;9.794;2023-06-26T15:08:12;22.20;69.40
15969;DHT22;8085;53.472;9.794;2023-06-26T15:11:02;22.40;1.00
15969;DHT22;8085;53.472;9.794;2023-06-26T15:13:35;22.60;1.00
15969;DHT22;8085;53.472;9.794;2023-06-26T15:23:05;22.00;1.00
15969;DHT22;8085;53.472;9.794;2023-06-26T15:26:05;21.70;99.90
15969;DHT22;8085;53.472;9.794;2023-06-26T15:28:49;21.70;99.90
15969;DHT22;8085;53.472;9.794;2023-06-26T15:31:23;21.60;1.00
15969;DHT22;8085;53.472;9.794;2023-06-26T15:34:00;21.60;99.90
15969;DHT22;8085;53.472;9.794;2023-06-26T15:36:35;21.70;23.50
15969;DHT22;8085;53.472;9.794;2023-06-26T15:39:09;21.80;1.00
15969;DHT22;8085;53.472;9.794;2023-06-26T15:41:49;21.90;1.00
15969;DHT22;8085;53.472;9.794;2023-06-26T15:44:18;21.80;1.00
15969;DHT22;8085;53.472;9.794;2023-06-26T15:47:06;21.80;1.00
15969;DHT22;8085;53.472;9.794;2023-06-26T15:53:34;21.40;8.60
15969;DHT22;8085;53.472;9.794;2023-06-26T16:03:44;21.90;1.00
15969;DHT22;8085;53.472;9.794;2023-06-26T16:06:23;22.20;99.90
15969;DHT22;8085;53.472;9.794;2023-06-26T16:08:57;22.10;1.00
15969;DHT22;8085;53.472;9.794;2023-06-26T16:11:27;22.00;1.00
15969;DHT22;8085;53.472;9.794;2023-06-26T16:13:54;21.80;99.90
15969;DHT22;8085;53.472;9.794;2023-06-26T16:16:25;21.60;1.00
15969;DHT22;8085;53.472;9.794;2023-06-26T16:19:05;21.50;99.90
15969;DHT22;8085;53.472;9.794;2023-06-26T16:21:35;21.30;1.00
15969;DHT22;8085;53.472;9.794;2023-06-26T16:24:12;21.10;99.90
15969;DHT22;8085;53.472;9.794;2023-06-26T16:26:44;21.00;99.90
15969;DHT22;8085;53.472;9.794;2023-06-26T16:29:14;20.90;1.00
15969;DHT22;8085;53.472;9.794;2023-06-26T16:31:41;20.80;1.00
15969;DHT22;8085;53.472;9.794;2023-06-26T16:34:14;20.70;1.00
15969;DHT22;8085;53.472;9.794;2023-06-26T16:36:43;20.60;1.00
15969;DHT22;8085;53.472;9.794;2023-06-26T16:39:15;20.50;1.00
15969;DHT22;8085;53.472;9.794;2023-06-26T16:41:46;20.50;1.00
15969;DHT22;8085;53.472;9.794;2023-06-26T16:44:18;20.60;1.00
15969;DHT22;8085;53.472;9.794;2023-06-26T16:46:49;20.60;1.00
15969;DHT22;8085;53.472;9.794;2023-06-26T16:49:28;20.60;1.00
15969;DHT22;8085;53.472;9.794;2023-06-26T16:52:07;20.60;1.00
15969;DHT22;8085;53.472;9.794;2023-06-26T16:54:45;20.40;1.00
15969;DHT22;8085;53.472;9.794;2023-06-26T16:57:20;20.40;1.00
15969;DHT22;8085;53.472;9.794;2023-06-26T17:00:00;20.40;1.00
15969;DHT22;8085;53.472;9.794;2023-06-26T17:02:44;20.60;1.00
15969;DHT22;8085;53.472;9.794;2023-06-26T17:05:29;20.70;1.00
15969;DHT22;8085;53.472;9.794;2023-06-26T17:08:00;20.90;1.00
15969;DHT22;8085;53.472;9.794;2023-06-26T17:10:27;21.20;1.00
15969;DHT22;8085;53.472;9.794;2023-06-26T17:12:55;21.60;1.00
15969;DHT22;8085;53.472;9.794;2023-06-26T17:15:25;21.90;99.90
15969;DHT22;8085;53.472;9.794;2023-06-26T17:17:55;21.80;1.00
15969;DHT22;8085;53.472;9.794;2023-06-26T17:20:23;21.40;1.00
15969;DHT22;8085;53.472;9.794;2023-06-26T17:22:57;21.20;1.00
15969;DHT22;8085;53.472;9.794;2023-06-26T17:25:29;20.80;1.00
15969;DHT22;8085;53.472;9.794;2023-06-26T17:28:06;20.60;1.00
15969;DHT22;8085;53.472;9.794;2023-06-26T17:30:43;20.30;1.00
15969;DHT22;8085;53.472;9.794;2023-06-26T17:33:22;19.90;1.00
15969;DHT22;8085;53.472;9.794;2023-06-26T17:35:52;19.60;1.00
15969;DHT22;8085;53.472;9.794;2023-06-26T17:38:21;19.40;1.00
15969;DHT22;8085;53.472;9.794;2023-06-26T17:40:51;19.40;1.00
15969;DHT22;8085;53.472;9.794;2023-06-26T17:43:18;19.40;1.00
15969;DHT22;8085;53.472;9.794;2023-06-26T17:45:46;19.40;1.00
15969;DHT22;8085;53.472;9.794;2023-06-26T17:48:14;19.30;1.00
15969;DHT22;8085;53.472;9.794;2023-06-26T17:50:41;19.30;9.80
15969;DHT22;8085;53.472;9.794;2023-06-26T17:53:12;19.40;3.50
15969;DHT22;8085;53.472;9.794;2023-06-26T17:55:42;19.50;1.00
15969;DHT22;8085;53.472;9.794;2023-06-26T17:58:14;19.50;1.00
15969;DHT22;8085;53.472;9.794;2023-06-26T18:00:42;19.40;10.70
15969;DHT22;8085;53.472;9.794;2023-06-26T18:03:09;19.30;18.40
15969;DHT22;8085;53.472;9.794;2023-06-26T18:05:36;19.40;18.60
15969;DHT22;8085;53.472;9.794;2023-06-26T18:08:08;19.40;23.40
15969;DHT22;8085;53.472;9.794;2023-06-26T18:10:42;19.40;99.90
15969;DHT22;8085;53.472;9.794;2023-06-26T18:13:21;19.30;99.90
15969;DHT22;8085;53.472;9.794;2023-06-26T18:15:50;19.10;99.90
15969;DHT22;8085;53.472;9.794;2023-06-26T18:18:18;19.20;99.90
15969;DHT22;8085;53.472;9.794;2023-06-26T18:20:47;19.40;99.90
15969;DHT22;8085;53.472;9.794;2023-06-26T18:23:15;19.40;99.90
15969;DHT22;8085;53.472;9.794;2023-06-26T18:25:47;19.50;99.90
15969;DHT22;8085;53.472;9.794;2023-06-26T18:28:24;19.40;99.90
15969;DHT22;8085;53.472;9.794;2023-06-26T18:30:57;19.40;99.90
15969;DHT22;8085;53.472;9.794;2023-06-26T18:33:27;19.30;99.90
15969;DHT22;8085;53.472;9.794;2023-06-26T18:36:12;19.20;99.90
15969;DHT22;8085;53.472;9.794;2023-06-26T18:38:50;19.20;99.90
15969;DHT22;8085;53.472;9.794;2023-06-26T18:41:28;19.20;99.90
15969;DHT22;8085;53.472;9.794;2023-06-26T18:43:55;19.00;99.90
15969;DHT22;8085;53.472;9.794;2023-06-26T18:47:07;18.80;99.90
15969;DHT22;8085;53.472;9.794;2023-06-26T18:49:34;18.80;99.90
15969;DHT22;8085;53.472;9.794;2023-06-26T18:52:02;18.70;99.90
15969;DHT22;8085;53.472;9.794;2023-06-26T18:54:30;18.60;99.90
15969;DHT22;8085;53.472;9.794;2023-06-26T18:57:01;18.60;99.90
15969;DHT22;8085;53.472;9.794;2023-06-26T18:59:28;18.50;99.90
15969;DHT22;8085;53.472;9.794;2023-06-26T19:01:56;18.50;99.90
15969;DHT22;8085;53.472;9.794;2023-06-26T19:04:23;18.40;99.90
15969;DHT22;8085;53.472;9.794;2023-06-26T19:21:22;18.30;99.90
15969;DHT22;8085;53.472;9.794;2023-06-26T19:37:16;17.60;99.90
15969;DHT22;8085;53.472;9.794;2023-06-26T19:40:00;17.50;99.90
15969;DHT22;8085;53.472;9.794;2023-06-26T19:42:42;17.50;99.90
15969;DHT22;8085;53.472;9.794;2023-06-26T19:45:36;17.40;99.90
15969;DHT22;8085;53.472;9.794;2023-06-26T19:48:08;17.40;99.90
15969;DHT22;8085;53.472;9.794;2023-06-26T19:50:38;17.30;99.90
15969;DHT22;8085;53.472;9.794;2023-06-26T19:53:07;17.30;99.90
15969;DHT22;8085;53.472;9.794;2023-06-26T19:55:42;17.20;99.90
15969;DHT22;8085;53.472;9.794;2023-06-26T19:58:10;17.20;99.90
15969;DHT22;8085;53.472;9.794;2023-06-26T20:00:39;17.10;99.90
15969;DHT22;8085;53.472;9.794;2023-06-26T20:03:09;17.00;99.90
15969;DHT22;8085;53.472;9.794;2023-06-26T20:05:36;16.90;99.90
15969;DHT22;8085;53.472;9.794;2023-06-26T20:08:07;16.90;99.90
15969;DHT22;8085;53.472;9.794;2023-06-26T20:10:40;16.80;99.90
15969;DHT22;8085;53.472;9.794;2023-06-26T20:13:19;16.70;99.90
15969;DHT22;8085;53.472;9.794;2023-06-26T20:15:47;16.70;99.90
15969;DHT22;8085;53.472;9.794;2023-06-26T20:18:14;16.70;99.90
15969;DHT22;8085;53.472;9.794;2023-06-26T20:20:46;16.70;99.90
15969;DHT22;8085;53.472;9.794;2023-06-26T20:23:15;16.60;99.90
15969;DHT22;8085;53.472;9.794;2023-06-26T20:25:44;16.60;99.90
15969;DHT22;8085;53.472;9.794;2023-06-26T20:28:12;16.50;99.90
15969;DHT22;8085;53.472;9.794;2023-06-26T20:30:43;16.50;99.90
15969;DHT22;8085;53.472;9.794;2023-06-26T20:33:13;16.40;99.90
15969;DHT22;8085;53.472;9.794;2023-06-26T20:35:44;16.40;99.90
15969;DHT22;8085;53.472;9.794;2023-06-26T20:38:16;16.40;99.90
15969;DHT22;8085;53.472;9.794;2023-06-26T20:41:05;16.40;99.90
15969;DHT22;8085;53.472;9.794;2023-06-26T20:43:40;16.40;99.90
15969;DHT22;8085;53.472;9.794;2023-06-26T20:46:16;16.40;99.90
15969;DHT22;8085;53.472;9.794;2023-06-26T20:48:46;16.30;99.90
15969;DHT22;8085;53.472;9.794;2023-06-26T20:51:26;16.20;99.90
15969;DHT22;8085;53.472;9.794;2023-06-26T20:54:03;16.30;99.90
15969;DHT22;8085;53.472;9.794;2023-06-26T20:57:01;16.20;99.90
15969;DHT22;8085;53.472;9.794;2023-06-26T21:00:21;16.10;99.90
15969;DHT22;8085;53.472;9.794;2023-06-26T21:06:31;16.10;99.90
15969;DHT22;8085;53.472;9.794;2023-06-26T21:15:53;16.00;99.90
15969;DHT22;8085;53.472;9.794;2023-06-26T21:18:59;16.00;99.90
15969;DHT22;8085;53.472;9.794;2023-06-26T21:31:51;15.70;99.90
15969;DHT22;8085;53.472;9.794;2023-06-26T21:34:22;15.70;99.90
15969;DHT22;8085;53.472;9.794;2023-06-26T21:37:22;15.70;99.90
15969;DHT22;8085;53.472;9.794;2023-06-26T21:39:53;15.60;99.90
15969;DHT22;8085;53.472;9.794;2023-06-26T21:42:34;15.50;99.90
15969;DHT22;8085;53.472;9.794;2023-06-26T21:48:17;15.40;99.90
15969;DHT22;8085;53.472;9.794;2023-06-26T21:52:02;15.40;99.90
15969;DHT22;8085;53.472;9.794;2023-06-26T21:54:56;15.40;99.90
15969;DHT22;8085;53.472;9.794;2023-06-26T22:01:50;15.40;99.90
15969;DHT22;8085;53.472;9.794;2023-06-26T22:04:21;15.30;99.90
15969;DHT22;8085;53.472;9.794;2023-06-26T22:07:26;15.30;99.90
15969;DHT22;8085;53.472;9.794;2023-06-26T22:14:26;15.30;99.90
15969;DHT22;8085;53.472;9.794;2023-06-26T22:20:46;15.20;99.90
15969;DHT22;8085;53.472;9.794;2023-06-26T22:23:28;15.20;99.90
